Harry B. Settoon — WDE5658 — position and weather

sailwx.info

Track history (hours):
 
Tides and Currents Weather Stations Pressure Air Temp Water Temp Dewpoint Dewpoint Depression Visibility Wind Speed Wind Dir Waves Ship Positions

Harry B. Settoon

Owner: Settoon Towing, LLC, Houma, LA. More information available from US FCC via Universal Licensing System and Coast Guard Vessel Documentation Center.

Last reported at 2016-Jun-27 19:30 UTC. Time now 2016-Jun-28 11:40 UTC.
Position N 29°46' W 090°01'.

; draft 1.8 m.

Type: Tug. MMSI: 367369920.

Date/timePositionNaut miles runAvg speedWind from/ knotsBaromVisibWave heightAir tempDewpointWater temp
2016-Jun-27 19:30N 29°46' W 090°01'7 7.8
2016-Jun-27 18:33N 29°52' W 089°57'4 4.1
2016-Jun-27 17:33N 29°56' W 089°59'5 5.3
2016-Jun-27 16:33N 29°55' W 090°05'4 3.7
2016-Jun-27 15:33N 29°51' W 090°04'27 4.5
2016-Jun-27 09:32N 29°33' W 090°28'6 6.1
2016-Jun-27 08:33N 29°34' W 090°35'6 5.7
2016-Jun-27 07:34N 29°36' W 090°41'3 2.8
2016-Jun-27 06:33N 29°34' W 090°43'3 3.5
2016-Jun-27 05:33N 29°32' W 090°46'9 1.3
2016-Jun-26 22:33N 29°34' W 090°56'5 5.3
2016-Jun-26 21:33N 29°32' W 090°51'5 4.7
2016-Jun-26 20:33N 29°33' W 090°45'4 4.0
2016-Jun-26 19:33N 29°36' W 090°43'4 4.1
2016-Jun-26 18:33N 29°35' W 090°38'6 5.7
2016-Jun-26 17:33N 29°34' W 090°32'21 4.9
2016-Jun-26 13:17N 29°43' W 090°10'4 5.0
2016-Jun-26 12:33N 29°46' W 090°07'4 3.7
2016-Jun-26 11:31N 29°49' W 090°04'6 5.8
2016-Jun-26 10:33N 29°53' W 090°00'3 3.2
2016-Jun-26 09:33N 29°55' W 089°58'0 0.0
2016-Jun-26 08:33N 29°55' W 089°58'0 0.0
2016-Jun-26 07:33N 29°55' W 089°58'1 1.0
2016-Jun-26 06:33N 29°55' W 089°57'3 3.2
2016-Jun-26 05:33N 29°52' W 089°56'4 3.5
2016-Jun-26 04:31N 29°50' W 089°59'5 0.2
2016-Jun-24 20:05N 29°46' W 090°02'5 9.1
2016-Jun-24 19:32N 29°50' W 089°59'6 5.8
2016-Jun-24 18:33N 29°54' W 089°55'8 8.1
2016-Jun-24 17:33N 29°57' W 090°04'4 3.9
2016-Jun-24 16:33N 29°53' W 090°05'5 5.1
2016-Jun-24 15:33N 29°48' W 090°04'27 5.1
2016-Jun-24 10:18N 29°34' W 090°30'4 6.0
2016-Jun-24 09:33N 29°34' W 090°35'5 5.3
2016-Jun-24 08:33N 29°36' W 090°41'4 4.2
2016-Jun-24 07:33N 29°34' W 090°45'  
2016-Jun-19 02:20N 29°51' W 091°53'5 6.2
2016-Jun-19 01:33N 29°50' W 091°59'1 0.7
2016-Jun-19 00:33N 29°50' W 091°59'0 0.0
2016-Jun-18 23:33N 29°50' W 091°59'0 0.0
2016-Jun-18 22:33N 29°50' W 091°59'0 0.0
2016-Jun-18 21:33N 29°50' W 091°59'0 0.0
2016-Jun-18 20:33N 29°50' W 091°59'0 0.0
2016-Jun-18 19:33N 29°50' W 091°59'0 0.0
2016-Jun-18 18:33N 29°50' W 091°59'0 0.0
2016-Jun-18 17:33N 29°50' W 091°59'3 3.1
2016-Jun-18 16:33N 29°51' W 091°56'45 5.0
2016-Jun-18 07:33N 29°40' W 091°06'8 1.0
2016-Jun-17 23:25N 29°36' W 090°58'  
Track history (hours):
 
Tides and Currents Weather Stations Pressure Air Temp Water Temp Dewpoint Dewpoint Depression Visibility Wind Speed Wind Dir Waves Ship Positions

Harry B. Settoon

Owner: Settoon Towing, LLC, Houma, LA. More information available from US FCC via Universal Licensing System and Coast Guard Vessel Documentation Center.

Last reported at 2016-Jun-27 19:30 UTC. Time now 2016-Jun-28 11:40 UTC.
Position N 29°46' W 090°01'.

; draft 1.8 m.

Type: Tug. MMSI: 367369920.

Date/timePositionNaut miles runAvg speedWind from/ knotsBaromVisibWave heightAir tempDewpointWater temp
2016-Jun-27 19:30N 29°46' W 090°01'7 7.8
2016-Jun-27 18:33N 29°52' W 089°57'4 4.1
2016-Jun-27 17:33N 29°56' W 089°59'5 5.3
2016-Jun-27 16:33N 29°55' W 090°05'4 3.7
2016-Jun-27 15:33N 29°51' W 090°04'27 4.5
2016-Jun-27 09:32N 29°33' W 090°28'6 6.1
2016-Jun-27 08:33N 29°34' W 090°35'6 5.7
2016-Jun-27 07:34N 29°36' W 090°41'3 2.8
2016-Jun-27 06:33N 29°34' W 090°43'3 3.5
2016-Jun-27 05:33N 29°32' W 090°46'9 1.3
2016-Jun-26 22:33N 29°34' W 090°56'5 5.3
2016-Jun-26 21:33N 29°32' W 090°51'5 4.7
2016-Jun-26 20:33N 29°33' W 090°45'4 4.0
2016-Jun-26 19:33N 29°36' W 090°43'4 4.1
2016-Jun-26 18:33N 29°35' W 090°38'6 5.7
2016-Jun-26 17:33N 29°34' W 090°32'21 4.9
2016-Jun-26 13:17N 29°43' W 090°10'4 5.0
2016-Jun-26 12:33N 29°46' W 090°07'4 3.7
2016-Jun-26 11:31N 29°49' W 090°04'6 5.8
2016-Jun-26 10:33N 29°53' W 090°00'3 3.2
2016-Jun-26 09:33N 29°55' W 089°58'0 0.0
2016-Jun-26 08:33N 29°55' W 089°58'0 0.0
2016-Jun-26 07:33N 29°55' W 089°58'1 1.0
2016-Jun-26 06:33N 29°55' W 089°57'3 3.2
2016-Jun-26 05:33N 29°52' W 089°56'4 3.5
2016-Jun-26 04:31N 29°50' W 089°59'5 0.2
2016-Jun-24 20:05N 29°46' W 090°02'5 9.1
2016-Jun-24 19:32N 29°50' W 089°59'6 5.8
2016-Jun-24 18:33N 29°54' W 089°55'8 8.1
2016-Jun-24 17:33N 29°57' W 090°04'4 3.9
2016-Jun-24 16:33N 29°53' W 090°05'5 5.1
2016-Jun-24 15:33N 29°48' W 090°04'27 5.1
2016-Jun-24 10:18N 29°34' W 090°30'4 6.0
2016-Jun-24 09:33N 29°34' W 090°35'5 5.3
2016-Jun-24 08:33N 29°36' W 090°41'4 4.2
2016-Jun-24 07:33N 29°34' W 090°45'  
2016-Jun-19 02:20N 29°51' W 091°53'5 6.2
2016-Jun-19 01:33N 29°50' W 091°59'1 0.7
2016-Jun-19 00:33N 29°50' W 091°59'0 0.0
2016-Jun-18 23:33N 29°50' W 091°59'0 0.0
2016-Jun-18 22:33N 29°50' W 091°59'0 0.0
2016-Jun-18 21:33N 29°50' W 091°59'0 0.0
2016-Jun-18 20:33N 29°50' W 091°59'0 0.0
2016-Jun-18 19:33N 29°50' W 091°59'0 0.0
2016-Jun-18 18:33N 29°50' W 091°59'0 0.0
2016-Jun-18 17:33N 29°50' W 091°59'3 3.1
2016-Jun-18 16:33N 29°51' W 091°56'45 5.0
2016-Jun-18 07:33N 29°40' W 091°06'8 1.0
2016-Jun-17 23:25N 29°36' W 090°58'  

Dump ship's entire track history